sensor_id;sensor_type;location;lat;lon;timestamp;P1;durP1;ratioP1;P2;durP2;ratioP2
17127;SDS011;8679;50.842;4.322;2024-03-17T00:01:37;1.90;;;1.10;;
17127;SDS011;8679;50.842;4.322;2024-03-17T00:04:03;5.07;;;1.77;;
17127;SDS011;8679;50.842;4.322;2024-03-17T00:06:30;1.93;;;1.20;;
17127;SDS011;8679;50.842;4.322;2024-03-17T00:08:56;4.33;;;1.17;;
17127;SDS011;8679;50.842;4.322;2024-03-17T00:11:22;2.07;;;1.20;;
17127;SDS011;8679;50.842;4.322;2024-03-17T00:13:48;3.03;;;1.23;;
17127;SDS011;8679;50.842;4.322;2024-03-17T00:16:14;4.17;;;1.10;;
17127;SDS011;8679;50.842;4.322;2024-03-17T00:18:43;1.67;;;1.17;;
17127;SDS011;8679;50.842;4.322;2024-03-17T00:21:11;2.67;;;1.33;;
17127;SDS011;8679;50.842;4.322;2024-03-17T00:23:38;2.80;;;1.20;;
17127;SDS011;8679;50.842;4.322;2024-03-17T00:26:04;1.57;;;1.30;;
17127;SDS011;8679;50.842;4.322;2024-03-17T00:28:30;1.30;;;0.90;;
17127;SDS011;8679;50.842;4.322;2024-03-17T00:30:57;2.87;;;1.30;;
17127;SDS011;8679;50.842;4.322;2024-03-17T00:33:23;1.30;;;0.87;;
17127;SDS011;8679;50.842;4.322;2024-03-17T00:35:49;1.80;;;1.10;;
17127;SDS011;8679;50.842;4.322;2024-03-17T00:38:16;4.00;;;1.17;;
17127;SDS011;8679;50.842;4.322;2024-03-17T00:40:42;4.93;;;1.50;;
17127;SDS011;8679;50.842;4.322;2024-03-17T00:43:10;2.30;;;1.10;;
17127;SDS011;8679;50.842;4.322;2024-03-17T00:45:39;2.33;;;1.20;;
17127;SDS011;8679;50.842;4.322;2024-03-17T00:48:05;1.90;;;1.30;;
17127;SDS011;8679;50.842;4.322;2024-03-17T00:50:32;5.23;;;2.00;;
17127;SDS011;8679;50.842;4.322;2024-03-17T00:52:58;2.03;;;1.30;;
17127;SDS011;8679;50.842;4.322;2024-03-17T00:55:25;5.47;;;1.63;;
17127;SDS011;8679;50.842;4.322;2024-03-17T00:57:51;2.63;;;1.77;;
17127;SDS011;8679;50.842;4.322;2024-03-17T01:00:17;4.43;;;2.13;;
17127;SDS011;8679;50.842;4.322;2024-03-17T01:02:44;4.70;;;2.73;;
17127;SDS011;8679;50.842;4.322;2024-03-17T01:05:10;2.63;;;1.60;;
17127;SDS011;8679;50.842;4.322;2024-03-17T01:07:36;2.50;;;1.43;;
17127;SDS011;8679;50.842;4.322;2024-03-17T01:10:02;3.47;;;1.83;;
17127;SDS011;8679;50.842;4.322;2024-03-17T01:12:28;4.90;;;1.60;;
17127;SDS011;8679;50.842;4.322;2024-03-17T01:14:54;2.67;;;1.43;;
17127;SDS011;8679;50.842;4.322;2024-03-17T01:17:20;4.00;;;2.23;;
17127;SDS011;8679;50.842;4.322;2024-03-17T01:19:46;3.57;;;2.20;;
17127;SDS011;8679;50.842;4.322;2024-03-17T01:22:12;6.80;;;1.70;;
17127;SDS011;8679;50.842;4.322;2024-03-17T01:24:39;1.80;;;1.33;;
17127;SDS011;8679;50.842;4.322;2024-03-17T01:27:11;1.53;;;1.30;;
17127;SDS011;8679;50.842;4.322;2024-03-17T01:29:39;2.73;;;1.37;;
17127;SDS011;8679;50.842;4.322;2024-03-17T01:32:05;3.87;;;1.87;;
17127;SDS011;8679;50.842;4.322;2024-03-17T01:34:32;2.17;;;1.50;;
17127;SDS011;8679;50.842;4.322;2024-03-17T01:36:58;2.73;;;1.43;;
17127;SDS011;8679;50.842;4.322;2024-03-17T01:39:24;3.13;;;1.70;;
17127;SDS011;8679;50.842;4.322;2024-03-17T01:41:51;1.93;;;1.37;;
17127;SDS011;8679;50.842;4.322;2024-03-17T01:44:23;3.23;;;1.57;;
17127;SDS011;8679;50.842;4.322;2024-03-17T01:46:50;2.83;;;1.43;;
17127;SDS011;8679;50.842;4.322;2024-03-17T01:49:17;1.90;;;1.30;;
17127;SDS011;8679;50.842;4.322;2024-03-17T01:51:44;3.87;;;1.93;;
17127;SDS011;8679;50.842;4.322;2024-03-17T01:54:10;2.27;;;1.30;;
17127;SDS011;8679;50.842;4.322;2024-03-17T01:56:37;3.67;;;1.43;;
17127;SDS011;8679;50.842;4.322;2024-03-17T01:59:03;5.63;;;1.43;;
17127;SDS011;8679;50.842;4.322;2024-03-17T02:01:31;2.00;;;1.37;;
17127;SDS011;8679;50.842;4.322;2024-03-17T02:03:57;3.00;;;1.80;;
17127;SDS011;8679;50.842;4.322;2024-03-17T02:06:23;2.67;;;1.50;;
17127;SDS011;8679;50.842;4.322;2024-03-17T02:08:53;4.43;;;1.70;;
17127;SDS011;8679;50.842;4.322;2024-03-17T02:11:26;3.87;;;1.17;;
17127;SDS011;8679;50.842;4.322;2024-03-17T02:13:53;1.60;;;1.40;;
17127;SDS011;8679;50.842;4.322;2024-03-17T02:16:19;2.57;;;1.63;;
17127;SDS011;8679;50.842;4.322;2024-03-17T02:18:45;3.43;;;1.73;;
17127;SDS011;8679;50.842;4.322;2024-03-17T02:21:12;5.60;;;2.33;;
17127;SDS011;8679;50.842;4.322;2024-03-17T02:23:39;3.50;;;1.30;;
17127;SDS011;8679;50.842;4.322;2024-03-17T02:26:05;2.97;;;1.67;;
17127;SDS011;8679;50.842;4.322;2024-03-17T02:28:42;1.87;;;1.30;;
17127;SDS011;8679;50.842;4.322;2024-03-17T02:31:08;2.63;;;1.70;;
17127;SDS011;8679;50.842;4.322;2024-03-17T02:33:35;2.37;;;1.37;;
17127;SDS011;8679;50.842;4.322;2024-03-17T02:36:01;2.43;;;1.37;;
17127;SDS011;8679;50.842;4.322;2024-03-17T02:38:29;2.20;;;1.23;;
17127;SDS011;8679;50.842;4.322;2024-03-17T02:41:14;2.77;;;1.73;;
17127;SDS011;8679;50.842;4.322;2024-03-17T02:43:40;4.37;;;1.80;;
17127;SDS011;8679;50.842;4.322;2024-03-17T02:46:06;3.20;;;1.90;;
17127;SDS011;8679;50.842;4.322;2024-03-17T02:48:36;4.50;;;1.10;;
17127;SDS011;8679;50.842;4.322;2024-03-17T02:51:06;1.90;;;0.97;;
17127;SDS011;8679;50.842;4.322;2024-03-17T02:53:32;2.30;;;1.60;;
17127;SDS011;8679;50.842;4.322;2024-03-17T02:55:58;2.57;;;1.67;;
17127;SDS011;8679;50.842;4.322;2024-03-17T02:58:24;1.97;;;1.00;;
17127;SDS011;8679;50.842;4.322;2024-03-17T03:00:50;3.50;;;1.40;;
17127;SDS011;8679;50.842;4.322;2024-03-17T03:03:16;2.50;;;1.20;;
17127;SDS011;8679;50.842;4.322;2024-03-17T03:05:42;3.30;;;1.60;;
17127;SDS011;8679;50.842;4.322;2024-03-17T03:08:08;3.80;;;1.37;;
17127;SDS011;8679;50.842;4.322;2024-03-17T03:10:34;2.27;;;1.03;;
17127;SDS011;8679;50.842;4.322;2024-03-17T03:13:00;2.07;;;1.10;;
17127;SDS011;8679;50.842;4.322;2024-03-17T03:15:26;1.90;;;0.93;;
17127;SDS011;8679;50.842;4.322;2024-03-17T03:17:53;3.97;;;1.53;;
17127;SDS011;8679;50.842;4.322;2024-03-17T03:20:19;2.80;;;2.13;;
17127;SDS011;8679;50.842;4.322;2024-03-17T03:22:45;5.03;;;1.10;;
17127;SDS011;8679;50.842;4.322;2024-03-17T03:25:11;1.83;;;1.30;;
17127;SDS011;8679;50.842;4.322;2024-03-17T03:27:37;1.10;;;0.80;;
17127;SDS011;8679;50.842;4.322;2024-03-17T03:30:05;1.87;;;1.10;;
17127;SDS011;8679;50.842;4.322;2024-03-17T03:32:33;3.03;;;1.40;;
17127;SDS011;8679;50.842;4.322;2024-03-17T03:34:59;4.63;;;1.27;;
17127;SDS011;8679;50.842;4.322;2024-03-17T03:37:25;9.93;;;1.23;;
17127;SDS011;8679;50.842;4.322;2024-03-17T03:39:51;1.97;;;1.10;;
17127;SDS011;8679;50.842;4.322;2024-03-17T03:42:17;1.13;;;0.80;;
17127;SDS011;8679;50.842;4.322;2024-03-17T03:44:45;1.27;;;0.93;;
17127;SDS011;8679;50.842;4.322;2024-03-17T03:47:14;1.43;;;1.03;;
17127;SDS011;8679;50.842;4.322;2024-03-17T03:49:40;3.27;;;1.50;;
17127;SDS011;8679;50.842;4.322;2024-03-17T03:52:06;1.77;;;1.13;;
17127;SDS011;8679;50.842;4.322;2024-03-17T03:54:33;2.70;;;1.40;;
17127;SDS011;8679;50.842;4.322;2024-03-17T03:57:00;2.30;;;1.23;;
17127;SDS011;8679;50.842;4.322;2024-03-17T03:59:27;1.20;;;0.90;;
17127;SDS011;8679;50.842;4.322;2024-03-17T04:01:54;3.03;;;1.87;;
17127;SDS011;8679;50.842;4.322;2024-03-17T04:04:21;2.63;;;1.37;;
17127;SDS011;8679;50.842;4.322;2024-03-17T04:06:47;2.17;;;1.37;;
17127;SDS011;8679;50.842;4.322;2024-03-17T04:09:13;1.53;;;0.90;;
17127;SDS011;8679;50.842;4.322;2024-03-17T04:11:39;2.27;;;1.47;;
17127;SDS011;8679;50.842;4.322;2024-03-17T04:14:05;3.40;;;1.37;;
17127;SDS011;8679;50.842;4.322;2024-03-17T04:16:31;2.43;;;1.37;;
17127;SDS011;8679;50.842;4.322;2024-03-17T04:18:57;1.13;;;0.93;;
17127;SDS011;8679;50.842;4.322;2024-03-17T04:21:23;3.57;;;1.50;;
17127;SDS011;8679;50.842;4.322;2024-03-17T04:23:49;4.40;;;1.83;;
17127;SDS011;8679;50.842;4.322;2024-03-17T04:26:15;4.73;;;1.37;;
17127;SDS011;8679;50.842;4.322;2024-03-17T04:28:41;2.00;;;1.13;;
17127;SDS011;8679;50.842;4.322;2024-03-17T04:31:07;4.30;;;1.43;;
17127;SDS011;8679;50.842;4.322;2024-03-17T04:33:36;2.93;;;1.23;;
17127;SDS011;8679;50.842;4.322;2024-03-17T04:36:03;2.63;;;1.43;;
17127;SDS011;8679;50.842;4.322;2024-03-17T04:38:29;1.80;;;1.27;;
17127;SDS011;8679;50.842;4.322;2024-03-17T04:40:55;1.93;;;1.20;;
17127;SDS011;8679;50.842;4.322;2024-03-17T04:43:29;1.50;;;0.90;;
17127;SDS011;8679;50.842;4.322;2024-03-17T04:46:00;2.73;;;1.50;;
17127;SDS011;8679;50.842;4.322;2024-03-17T04:48:26;1.30;;;0.97;;
17127;SDS011;8679;50.842;4.322;2024-03-17T04:50:52;2.03;;;1.50;;
17127;SDS011;8679;50.842;4.322;2024-03-17T04:53:19;4.90;;;1.47;;
17127;SDS011;8679;50.842;4.322;2024-03-17T04:55:45;2.43;;;1.30;;
17127;SDS011;8679;50.842;4.322;2024-03-17T04:58:11;3.03;;;1.50;;
17127;SDS011;8679;50.842;4.322;2024-03-17T05:00:37;2.07;;;1.43;;
17127;SDS011;8679;50.842;4.322;2024-03-17T05:03:03;2.27;;;1.27;;
17127;SDS011;8679;50.842;4.322;2024-03-17T05:05:29;1.53;;;1.30;;
17127;SDS011;8679;50.842;4.322;2024-03-17T05:07:55;2.60;;;1.10;;
17127;SDS011;8679;50.842;4.322;2024-03-17T05:10:21;2.83;;;1.30;;
17127;SDS011;8679;50.842;4.322;2024-03-17T05:12:47;3.67;;;1.83;;
17127;SDS011;8679;50.842;4.322;2024-03-17T05:15:13;2.23;;;1.50;;
17127;SDS011;8679;50.842;4.322;2024-03-17T05:17:40;3.17;;;1.47;;
17127;SDS011;8679;50.842;4.322;2024-03-17T05:20:06;1.73;;;1.37;;
17127;SDS011;8679;50.842;4.322;2024-03-17T05:22:33;3.33;;;1.53;;
17127;SDS011;8679;50.842;4.322;2024-03-17T05:24:59;2.70;;;1.10;;
17127;SDS011;8679;50.842;4.322;2024-03-17T05:27:25;1.77;;;1.20;;
17127;SDS011;8679;50.842;4.322;2024-03-17T05:29:51;2.00;;;1.20;;
17127;SDS011;8679;50.842;4.322;2024-03-17T05:32:17;1.63;;;1.23;;
17127;SDS011;8679;50.842;4.322;2024-03-17T05:34:44;2.30;;;1.50;;
17127;SDS011;8679;50.842;4.322;2024-03-17T05:37:10;3.07;;;1.47;;
17127;SDS011;8679;50.842;4.322;2024-03-17T05:39:36;1.90;;;1.30;;
17127;SDS011;8679;50.842;4.322;2024-03-17T05:42:02;1.70;;;0.90;;
17127;SDS011;8679;50.842;4.322;2024-03-17T05:44:28;2.37;;;1.50;;
17127;SDS011;8679;50.842;4.322;2024-03-17T05:46:58;3.03;;;1.30;;
17127;SDS011;8679;50.842;4.322;2024-03-17T05:49:24;3.60;;;1.67;;
17127;SDS011;8679;50.842;4.322;2024-03-17T05:51:50;3.03;;;1.53;;
17127;SDS011;8679;50.842;4.322;2024-03-17T05:54:16;2.53;;;1.33;;
17127;SDS011;8679;50.842;4.322;2024-03-17T05:56:42;4.60;;;1.40;;
17127;SDS011;8679;50.842;4.322;2024-03-17T05:59:08;2.70;;;1.40;;
17127;SDS011;8679;50.842;4.322;2024-03-17T06:01:34;1.67;;;1.57;;
17127;SDS011;8679;50.842;4.322;2024-03-17T06:04:01;3.07;;;1.93;;
17127;SDS011;8679;50.842;4.322;2024-03-17T06:06:29;2.43;;;1.10;;
17127;SDS011;8679;50.842;4.322;2024-03-17T06:08:55;2.87;;;1.10;;
17127;SDS011;8679;50.842;4.322;2024-03-17T06:11:21;4.47;;;1.80;;
17127;SDS011;8679;50.842;4.322;2024-03-17T06:13:47;2.50;;;1.10;;
17127;SDS011;8679;50.842;4.322;2024-03-17T06:16:13;2.57;;;1.07;;
17127;SDS011;8679;50.842;4.322;2024-03-17T06:18:39;1.43;;;1.03;;
17127;SDS011;8679;50.842;4.322;2024-03-17T06:21:05;2.73;;;1.40;;
17127;SDS011;8679;50.842;4.322;2024-03-17T06:23:34;3.83;;;1.50;;
17127;SDS011;8679;50.842;4.322;2024-03-17T06:26:00;2.43;;;1.43;;
17127;SDS011;8679;50.842;4.322;2024-03-17T06:28:30;3.33;;;1.60;;
17127;SDS011;8679;50.842;4.322;2024-03-17T06:30:57;1.90;;;1.30;;
17127;SDS011;8679;50.842;4.322;2024-03-17T06:33:29;1.93;;;1.33;;
17127;SDS011;8679;50.842;4.322;2024-03-17T06:35:57;2.07;;;1.37;;
17127;SDS011;8679;50.842;4.322;2024-03-17T06:38:23;4.40;;;1.30;;
17127;SDS011;8679;50.842;4.322;2024-03-17T06:40:49;4.50;;;1.40;;
17127;SDS011;8679;50.842;4.322;2024-03-17T06:43:16;1.57;;;1.10;;
17127;SDS011;8679;50.842;4.322;2024-03-17T06:45:42;1.53;;;1.27;;
17127;SDS011;8679;50.842;4.322;2024-03-17T06:48:08;6.00;;;1.20;;
17127;SDS011;8679;50.842;4.322;2024-03-17T06:50:34;2.20;;;1.13;;
17127;SDS011;8679;50.842;4.322;2024-03-17T06:53:01;2.57;;;1.50;;
17127;SDS011;8679;50.842;4.322;2024-03-17T06:55:27;4.00;;;1.73;;
17127;SDS011;8679;50.842;4.322;2024-03-17T06:57:53;3.10;;;1.10;;
17127;SDS011;8679;50.842;4.322;2024-03-17T07:00:19;2.10;;;1.03;;
17127;SDS011;8679;50.842;4.322;2024-03-17T07:02:50;1.73;;;0.90;;
17127;SDS011;8679;50.842;4.322;2024-03-17T07:05:16;6.13;;;1.77;;
17127;SDS011;8679;50.842;4.322;2024-03-17T07:07:42;1.40;;;1.10;;
17127;SDS011;8679;50.842;4.322;2024-03-17T07:10:09;4.33;;;1.80;;
17127;SDS011;8679;50.842;4.322;2024-03-17T07:12:36;4.10;;;1.47;;
17127;SDS011;8679;50.842;4.322;2024-03-17T07:15:03;1.50;;;1.00;;
17127;SDS011;8679;50.842;4.322;2024-03-17T07:17:29;4.80;;;1.47;;
17127;SDS011;8679;50.842;4.322;2024-03-17T07:19:55;1.90;;;1.20;;
17127;SDS011;8679;50.842;4.322;2024-03-17T07:22:21;2.73;;;1.40;;
17127;SDS011;8679;50.842;4.322;2024-03-17T07:24:52;2.10;;;1.13;;
17127;SDS011;8679;50.842;4.322;2024-03-17T07:27:22;1.37;;;1.10;;
17127;SDS011;8679;50.842;4.322;2024-03-17T07:29:48;3.10;;;1.20;;
17127;SDS011;8679;50.842;4.322;2024-03-17T07:32:14;5.50;;;1.10;;
17127;SDS011;8679;50.842;4.322;2024-03-17T07:34:40;1.77;;;1.03;;
17127;SDS011;8679;50.842;4.322;2024-03-17T07:37:06;1.47;;;1.00;;
17127;SDS011;8679;50.842;4.322;2024-03-17T07:39:32;4.23;;;1.17;;
17127;SDS011;8679;50.842;4.322;2024-03-17T07:42:05;6.07;;;1.60;;
17127;SDS011;8679;50.842;4.322;2024-03-17T07:44:32;9.00;;;2.23;;
17127;SDS011;8679;50.842;4.322;2024-03-17T07:47:01;4.17;;;0.90;;
17127;SDS011;8679;50.842;4.322;2024-03-17T07:49:29;2.57;;;1.30;;
17127;SDS011;8679;50.842;4.322;2024-03-17T07:51:55;2.07;;;1.43;;
17127;SDS011;8679;50.842;4.322;2024-03-17T07:54:23;1.40;;;1.00;;
17127;SDS011;8679;50.842;4.322;2024-03-17T07:56:49;2.80;;;1.30;;
17127;SDS011;8679;50.842;4.322;2024-03-17T07:59:15;2.70;;;1.00;;
17127;SDS011;8679;50.842;4.322;2024-03-17T08:01:43;2.07;;;1.00;;
17127;SDS011;8679;50.842;4.322;2024-03-17T08:04:09;2.57;;;1.20;;
17127;SDS011;8679;50.842;4.322;2024-03-17T08:06:37;1.53;;;0.90;;
17127;SDS011;8679;50.842;4.322;2024-03-17T08:09:03;2.50;;;1.07;;
17127;SDS011;8679;50.842;4.322;2024-03-17T08:11:29;1.33;;;1.07;;
17127;SDS011;8679;50.842;4.322;2024-03-17T08:13:55;1.80;;;0.90;;
17127;SDS011;8679;50.842;4.322;2024-03-17T08:16:21;1.23;;;0.93;;
17127;SDS011;8679;50.842;4.322;2024-03-17T08:18:47;3.23;;;0.97;;
17127;SDS011;8679;50.842;4.322;2024-03-17T08:21:13;2.37;;;0.83;;
17127;SDS011;8679;50.842;4.322;2024-03-17T08:23:39;2.30;;;1.07;;
17127;SDS011;8679;50.842;4.322;2024-03-17T08:26:11;1.07;;;0.83;;
17127;SDS011;8679;50.842;4.322;2024-03-17T08:28:37;2.13;;;1.40;;
17127;SDS011;8679;50.842;4.322;2024-03-17T08:31:03;2.60;;;1.00;;
17127;SDS011;8679;50.842;4.322;2024-03-17T08:33:30;1.47;;;0.77;;
17127;SDS011;8679;50.842;4.322;2024-03-17T08:36:02;1.50;;;0.80;;
17127;SDS011;8679;50.842;4.322;2024-03-17T08:38:29;2.33;;;0.90;;
17127;SDS011;8679;50.842;4.322;2024-03-17T08:40:56;1.47;;;0.90;;
17127;SDS011;8679;50.842;4.322;2024-03-17T08:43:23;2.70;;;1.10;;
17127;SDS011;8679;50.842;4.322;2024-03-17T08:45:59;3.60;;;0.80;;
17127;SDS011;8679;50.842;4.322;2024-03-17T08:48:27;1.93;;;1.17;;
17127;SDS011;8679;50.842;4.322;2024-03-17T08:50:55;1.30;;;0.93;;
17127;SDS011;8679;50.842;4.322;2024-03-17T08:53:22;1.23;;;1.00;;
17127;SDS011;8679;50.842;4.322;2024-03-17T08:55:49;6.27;;;1.23;;
17127;SDS011;8679;50.842;4.322;2024-03-17T08:58:15;3.33;;;1.10;;
17127;SDS011;8679;50.842;4.322;2024-03-17T09:00:42;2.23;;;1.23;;
17127;SDS011;8679;50.842;4.322;2024-03-17T09:03:08;1.97;;;1.10;;
17127;SDS011;8679;50.842;4.322;2024-03-17T09:05:35;1.90;;;1.00;;
17127;SDS011;8679;50.842;4.322;2024-03-17T09:08:02;3.00;;;1.33;;
17127;SDS011;8679;50.842;4.322;2024-03-17T09:10:28;0.70;;;0.60;;
17127;SDS011;8679;50.842;4.322;2024-03-17T09:12:54;4.07;;;1.20;;
17127;SDS011;8679;50.842;4.322;2024-03-17T09:15:20;1.60;;;1.00;;
17127;SDS011;8679;50.842;4.322;2024-03-17T09:17:46;1.60;;;1.50;;
17127;SDS011;8679;50.842;4.322;2024-03-17T09:20:13;0.97;;;0.57;;
17127;SDS011;8679;50.842;4.322;2024-03-17T09:22:40;2.20;;;1.00;;
17127;SDS011;8679;50.842;4.322;2024-03-17T09:25:07;1.33;;;1.03;;
17127;SDS011;8679;50.842;4.322;2024-03-17T09:27:33;5.60;;;1.40;;
17127;SDS011;8679;50.842;4.322;2024-03-17T09:30:02;4.50;;;1.00;;
17127;SDS011;8679;50.842;4.322;2024-03-17T09:32:30;3.57;;;1.17;;
17127;SDS011;8679;50.842;4.322;2024-03-17T09:34:56;1.87;;;1.10;;
17127;SDS011;8679;50.842;4.322;2024-03-17T09:37:23;0.70;;;0.60;;
17127;SDS011;8679;50.842;4.322;2024-03-17T09:39:49;0.97;;;0.73;;
17127;SDS011;8679;50.842;4.322;2024-03-17T09:42:19;1.40;;;0.77;;
17127;SDS011;8679;50.842;4.322;2024-03-17T09:44:48;2.60;;;1.07;;
17127;SDS011;8679;50.842;4.322;2024-03-17T09:47:21;2.40;;;1.63;;
17127;SDS011;8679;50.842;4.322;2024-03-17T09:49:47;1.60;;;0.93;;
17127;SDS011;8679;50.842;4.322;2024-03-17T09:52:23;2.43;;;1.43;;
17127;SDS011;8679;50.842;4.322;2024-03-17T09:55:00;3.67;;;1.07;;
17127;SDS011;8679;50.842;4.322;2024-03-17T09:57:27;1.23;;;0.60;;
17127;SDS011;8679;50.842;4.322;2024-03-17T09:59:54;3.33;;;1.43;;
17127;SDS011;8679;50.842;4.322;2024-03-17T10:02:21;1.30;;;0.67;;
17127;SDS011;8679;50.842;4.322;2024-03-17T10:04:47;0.93;;;0.80;;
17127;SDS011;8679;50.842;4.322;2024-03-17T10:07:13;1.57;;;0.87;;
17127;SDS011;8679;50.842;4.322;2024-03-17T10:09:41;2.97;;;0.83;;
17127;SDS011;8679;50.842;4.322;2024-03-17T10:12:27;2.10;;;1.17;;
17127;SDS011;8679;50.842;4.322;2024-03-17T10:15:00;4.83;;;1.13;;
17127;SDS011;8679;50.842;4.322;2024-03-17T10:17:32;0.80;;;0.70;;
17127;SDS011;8679;50.842;4.322;2024-03-17T10:25:26;0.77;;;0.57;;
17127;SDS011;8679;50.842;4.322;2024-03-17T10:27:53;2.87;;;0.63;;
17127;SDS011;8679;50.842;4.322;2024-03-17T10:30:19;1.30;;;1.17;;
17127;SDS011;8679;50.842;4.322;2024-03-17T10:32:51;6.47;;;0.82;;
17127;SDS011;8679;50.842;4.322;2024-03-17T10:35:27;0.97;;;0.60;;
17127;SDS011;8679;50.842;4.322;2024-03-17T10:38:03;2.80;;;1.30;;
17127;SDS011;8679;50.842;4.322;2024-03-17T10:40:30;2.05;;;1.05;;
17127;SDS011;8679;50.842;4.322;2024-03-17T10:42:56;1.45;;;0.93;;
17127;SDS011;8679;50.842;4.322;2024-03-17T10:45:23;0.98;;;0.80;;
17127;SDS011;8679;50.842;4.322;2024-03-17T10:47:50;1.48;;;0.98;;
17127;SDS011;8679;50.842;4.322;2024-03-17T10:50:20;1.25;;;0.70;;
17127;SDS011;8679;50.842;4.322;2024-03-17T10:52:47;1.85;;;0.93;;
17127;SDS011;8679;50.842;4.322;2024-03-17T10:55:23;1.70;;;0.93;;
17127;SDS011;8679;50.842;4.322;2024-03-17T10:57:50;1.33;;;0.55;;
17127;SDS011;8679;50.842;4.322;2024-03-17T11:00:20;1.05;;;0.77;;
17127;SDS011;8679;50.842;4.322;2024-03-17T11:02:53;2.05;;;0.95;;
17127;SDS011;8679;50.842;4.322;2024-03-17T11:05:24;2.15;;;0.70;;
17127;SDS011;8679;50.842;4.322;2024-03-17T11:07:53;0.98;;;0.75;;
17127;SDS011;8679;50.842;4.322;2024-03-17T11:12:56;6.13;;;2.22;;
17127;SDS011;8679;50.842;4.322;2024-03-17T11:20:37;1.58;;;0.82;;
17127;SDS011;8679;50.842;4.322;2024-03-17T11:23:04;1.67;;;0.80;;
17127;SDS011;8679;50.842;4.322;2024-03-17T11:25:39;2.97;;;1.08;;
17127;SDS011;8679;50.842;4.322;2024-03-17T11:28:09;1.65;;;0.60;;
17127;SDS011;8679;50.842;4.322;2024-03-17T11:46:43;0.80;;;0.65;;
17127;SDS011;8679;50.842;4.322;2024-03-17T11:49:52;1.23;;;1.15;;
17127;SDS011;8679;50.842;4.322;2024-03-17T11:51:59;2.72;;;0.60;;
17127;SDS011;8679;50.842;4.322;2024-03-17T11:54:27;1.10;;;0.60;;
17127;SDS011;8679;50.842;4.322;2024-03-17T11:56:54;0.82;;;0.43;;
17127;SDS011;8679;50.842;4.322;2024-03-17T11:59:21;0.30;;;0.30;;
17127;SDS011;8679;50.842;4.322;2024-03-17T12:01:48;2.30;;;0.50;;
17127;SDS011;8679;50.842;4.322;2024-03-17T12:04:14;1.05;;;0.57;;
17127;SDS011;8679;50.842;4.322;2024-03-17T12:06:44;1.63;;;1.08;;
17127;SDS011;8679;50.842;4.322;2024-03-17T12:09:31;3.25;;;0.65;;
17127;SDS011;8679;50.842;4.322;2024-03-17T12:11:59;1.80;;;1.27;;
17127;SDS011;8679;50.842;4.322;2024-03-17T12:14:26;6.38;;;1.65;;
17127;SDS011;8679;50.842;4.322;2024-03-17T12:16:55;0.75;;;0.50;;
17127;SDS011;8679;50.842;4.322;2024-03-17T12:19:22;1.50;;;0.82;;
17127;SDS011;8679;50.842;4.322;2024-03-17T12:21:53;0.80;;;0.60;;
17127;SDS011;8679;50.842;4.322;2024-03-17T12:24:26;0.70;;;0.50;;
17127;SDS011;8679;50.842;4.322;2024-03-17T12:26:53;0.73;;;0.35;;
17127;SDS011;8679;50.842;4.322;2024-03-17T12:29:28;1.35;;;0.52;;
17127;SDS011;8679;50.842;4.322;2024-03-17T12:32:01;2.60;;;0.38;;
17127;SDS011;8679;50.842;4.322;2024-03-17T12:34:28;0.68;;;0.60;;
17127;SDS011;8679;50.842;4.322;2024-03-17T12:36:55;0.75;;;0.75;;
17127;SDS011;8679;50.842;4.322;2024-03-17T12:39:23;0.85;;;0.50;;
17127;SDS011;8679;50.842;4.322;2024-03-17T12:44:34;0.35;;;0.35;;
17127;SDS011;8679;50.842;4.322;2024-03-17T12:47:04;2.15;;;0.35;;
17127;SDS011;8679;50.842;4.322;2024-03-17T12:49:31;0.98;;;0.70;;
17127;SDS011;8679;50.842;4.322;2024-03-17T12:52:00;0.70;;;0.50;;
17127;SDS011;8679;50.842;4.322;2024-03-17T12:54:27;0.88;;;0.55;;
17127;SDS011;8679;50.842;4.322;2024-03-17T12:57:04;1.10;;;0.50;;
17127;SDS011;8679;50.842;4.322;2024-03-17T12:59:49;1.58;;;0.70;;
17127;SDS011;8679;50.842;4.322;2024-03-17T13:02:34;0.98;;;0.75;;
17127;SDS011;8679;50.842;4.322;2024-03-17T13:07:32;3.45;;;1.20;;
17127;SDS011;8679;50.842;4.322;2024-03-17T13:09:59;1.73;;;0.38;;
17127;SDS011;8679;50.842;4.322;2024-03-17T13:12:25;2.15;;;0.90;;
17127;SDS011;8679;50.842;4.322;2024-03-17T13:14:52;1.42;;;0.80;;
17127;SDS011;8679;50.842;4.322;2024-03-17T13:17:18;1.10;;;0.50;;
17127;SDS011;8679;50.842;4.322;2024-03-17T13:19:47;2.83;;;0.40;;
17127;SDS011;8679;50.842;4.322;2024-03-17T13:22:13;0.95;;;0.65;;
17127;SDS011;8679;50.842;4.322;2024-03-17T13:24:39;2.40;;;0.55;;
17127;SDS011;8679;50.842;4.322;2024-03-17T13:27:06;0.40;;;0.40;;
17127;SDS011;8679;50.842;4.322;2024-03-17T13:29:34;0.75;;;0.30;;
17127;SDS011;8679;50.842;4.322;2024-03-17T13:32:03;2.83;;;0.60;;
17127;SDS011;8679;50.842;4.322;2024-03-17T13:34:30;0.65;;;0.50;;
17127;SDS011;8679;50.842;4.322;2024-03-17T13:36:56;0.57;;;0.30;;
17127;SDS011;8679;50.842;4.322;2024-03-17T13:39:22;3.35;;;0.90;;
17127;SDS011;8679;50.842;4.322;2024-03-17T13:41:55;0.82;;;0.50;;
17127;SDS011;8679;50.842;4.322;2024-03-17T13:44:27;0.65;;;0.55;;
17127;SDS011;8679;50.842;4.322;2024-03-17T13:46:53;1.90;;;0.47;;
17127;SDS011;8679;50.842;4.322;2024-03-17T13:49:19;0.30;;;0.30;;
17127;SDS011;8679;50.842;4.322;2024-03-17T13:51:45;0.63;;;0.50;;
17127;SDS011;8679;50.842;4.322;2024-03-17T13:54:11;1.65;;;0.43;;
17127;SDS011;8679;50.842;4.322;2024-03-17T13:56:37;0.35;;;0.25;;
17127;SDS011;8679;50.842;4.322;2024-03-17T13:59:03;1.55;;;0.50;;
17127;SDS011;8679;50.842;4.322;2024-03-17T14:01:29;1.33;;;0.38;;
17127;SDS011;8679;50.842;4.322;2024-03-17T14:03:55;0.63;;;0.32;;
17127;SDS011;8679;50.842;4.322;2024-03-17T14:06:21;0.77;;;0.55;;
17127;SDS011;8679;50.842;4.322;2024-03-17T14:08:47;0.85;;;0.60;;
17127;SDS011;8679;50.842;4.322;2024-03-17T14:11:13;1.73;;;0.40;;
17127;SDS011;8679;50.842;4.322;2024-03-17T14:13:39;2.17;;;0.32;;
17127;SDS011;8679;50.842;4.322;2024-03-17T14:16:05;0.70;;;0.40;;
17127;SDS011;8679;50.842;4.322;2024-03-17T14:18:31;1.15;;;0.55;;
17127;SDS011;8679;50.842;4.322;2024-03-17T14:20:58;0.57;;;0.40;;
17127;SDS011;8679;50.842;4.322;2024-03-17T14:23:24;2.35;;;0.57;;
17127;SDS011;8679;50.842;4.322;2024-03-17T14:25:50;0.50;;;0.40;;
17127;SDS011;8679;50.842;4.322;2024-03-17T14:28:16;2.88;;;0.68;;
17127;SDS011;8679;50.842;4.322;2024-03-17T14:30:44;2.38;;;0.60;;
17127;SDS011;8679;50.842;4.322;2024-03-17T14:33:10;3.15;;;0.35;;
17127;SDS011;8679;50.842;4.322;2024-03-17T14:35:37;0.65;;;0.40;;
17127;SDS011;8679;50.842;4.322;2024-03-17T14:38:03;1.42;;;0.63;;
17127;SDS011;8679;50.842;4.322;2024-03-17T14:40:30;1.90;;;0.50;;
17127;SDS011;8679;50.842;4.322;2024-03-17T14:42:56;5.18;;;0.95;;
17127;SDS011;8679;50.842;4.322;2024-03-17T14:45:22;0.90;;;0.63;;
17127;SDS011;8679;50.842;4.322;2024-03-17T14:47:51;0.32;;;0.30;;
17127;SDS011;8679;50.842;4.322;2024-03-17T14:50:17;5.40;;;1.27;;
17127;SDS011;8679;50.842;4.322;2024-03-17T14:52:44;1.05;;;0.77;;
17127;SDS011;8679;50.842;4.322;2024-03-17T14:55:10;3.22;;;0.68;;
17127;SDS011;8679;50.842;4.322;2024-03-17T14:57:37;3.28;;;0.85;;
17127;SDS011;8679;50.842;4.322;2024-03-17T15:00:07;1.98;;;0.65;;
17127;SDS011;8679;50.842;4.322;2024-03-17T15:02:41;0.20;;;0.20;;
17127;SDS011;8679;50.842;4.322;2024-03-17T15:05:07;5.10;;;0.40;;
17127;SDS011;8679;50.842;4.322;2024-03-17T15:07:34;1.55;;;0.38;;
17127;SDS011;8679;50.842;4.322;2024-03-17T15:10:01;0.50;;;0.38;;
17127;SDS011;8679;50.842;4.322;2024-03-17T15:12:28;4.28;;;0.68;;
17127;SDS011;8679;50.842;4.322;2024-03-17T15:14:54;0.20;;;0.20;;
17127;SDS011;8679;50.842;4.322;2024-03-17T15:17:21;1.23;;;0.52;;
17127;SDS011;8679;50.842;4.322;2024-03-17T15:19:47;0.43;;;0.30;;
17127;SDS011;8679;50.842;4.322;2024-03-17T15:22:13;0.93;;;0.50;;
17127;SDS011;8679;50.842;4.322;2024-03-17T15:24:39;1.05;;;0.43;;
17127;SDS011;8679;50.842;4.322;2024-03-17T15:27:05;2.33;;;0.60;;
17127;SDS011;8679;50.842;4.322;2024-03-17T15:29:31;1.85;;;0.30;;
17127;SDS011;8679;50.842;4.322;2024-03-17T15:31:57;3.55;;;0.60;;
17127;SDS011;8679;50.842;4.322;2024-03-17T15:34:24;0.65;;;0.32;;
17127;SDS011;8679;50.842;4.322;2024-03-17T15:36:50;1.48;;;0.55;;